createdAt,value
2022-11-12T00:01:38.015Z,163.21708
2022-11-12T00:06:39.937Z,154.9589
2022-11-12T00:11:42.152Z,153.52381
2022-11-12T00:16:44.008Z,151.40741
2022-11-12T00:21:45.807Z,147.30033
2022-11-12T00:26:47.735Z,142.70968
2022-11-12T00:31:49.641Z,140.17834
2022-11-12T00:36:51.314Z,138.93671
2022-11-12T00:41:53.347Z,134.71207
2022-11-12T00:46:54.886Z,131.80488
2022-11-12T00:51:56.408Z,126.78932
2022-11-12T00:56:58.452Z,119.49858
2022-11-12T01:02:00.005Z,125.17647
2022-11-12T01:07:01.648Z,130.66667
2022-11-12T01:12:03.675Z,135.90031
2022-11-12T01:17:05.249Z,143.35275
2022-11-12T01:22:07.028Z,145.30719
2022-11-12T01:27:08.813Z,144
2022-11-12T01:32:10.354Z,148.65116
2022-11-12T01:37:11.882Z,141.4359
2022-11-12T01:42:13.705Z,141.4359
2022-11-12T01:47:15.464Z,135.90031
2022-11-12T01:52:17.105Z,135.30435
2022-11-12T01:57:18.676Z,135.90031
2022-11-12T02:02:20.148Z,133.53846
2022-11-12T02:07:21.633Z,125.71091
2022-11-12T02:12:23.647Z,130.66667
2022-11-12T02:17:25.165Z,134.71207
2022-11-12T02:22:26.643Z,127.8806
2022-11-12T02:27:28.126Z,128.98498
2022-11-12T02:32:29.698Z,129.54217
2022-11-12T02:37:31.321Z,134.12346
2022-11-12T02:42:33.170Z,130.66667
2022-11-12T02:47:34.935Z,125.71091
2022-11-12T02:52:36.638Z,124.64516
2022-11-12T02:57:38.455Z,122.03468
2022-11-12T03:02:40.376Z,121.01149
2022-11-12T03:07:41.891Z,116.54902
2022-11-12T03:12:44.105Z,114.63712
2022-11-12T03:17:46.658Z,110.03774
2022-11-12T03:23:04.908Z,106.96296
2022-11-12T03:28:14.850Z,103.58549
2022-11-12T03:33:20.777Z,107.39523
2022-11-12T03:38:24.009Z,104
2022-11-12T03:43:31.392Z,107.39523
2022-11-12T03:48:48.043Z,102.35476
2022-11-12T03:53:54.194Z,102.35476
2022-11-12T03:58:56.510Z,109.5914
2022-11-12T04:04:01.954Z,105.67979
2022-11-12T04:09:09.547Z,107.39523
2022-11-12T04:14:15.224Z,110.93767
2022-11-12T04:19:18.065Z,114.16575
2022-11-12T04:24:28.539Z,113.23077
2022-11-12T04:29:46.612Z,111.84741
2022-11-12T04:34:49.203Z,119.49858
2022-11-12T04:45:16.221Z,113.23077
2022-11-12T04:51:00.197Z,126.78932
2022-11-12T04:56:16.237Z,117.52113
2022-11-12T05:01:21.548Z,128.43114
2022-11-12T05:06:30.197Z,128.98498
2022-11-12T05:11:36.431Z,134.71207
2022-11-12T05:16:49.672Z,130.10272
2022-11-12T05:21:52.083Z,128.98498
2022-11-12T05:27:00.081Z,138.32177
2022-11-12T05:32:19.158Z,135.90031
2022-11-12T05:37:55.036Z,163.21708
2022-11-12T05:42:58.521Z,147.97351
2022-11-12T05:48:04.061Z,142.07074
2022-11-12T05:53:05.857Z,167.18841
2022-11-12T05:58:07.377Z,144.65147
2022-11-12T06:03:08.819Z,149.33333
2022-11-12T06:08:10.542Z,133.53846
2022-11-12T06:13:11.996Z,135.30435
2022-11-12T06:18:13.494Z,144
2022-11-12T06:23:15.544Z,128.43114
2022-11-12T06:28:16.968Z,121.01149
2022-11-12T06:33:18.514Z,134.12346
2022-11-12T06:38:20.280Z,126.78932
2022-11-12T06:43:21.820Z,164
2022-11-12T06:48:23.373Z,171.30627
2022-11-12T06:53:25.395Z,143.35275
2022-11-12T06:58:27.093Z,157.14879
2022-11-12T07:03:28.686Z,133.53846
2022-11-12T07:08:30.590Z,171.30627
2022-11-12T07:13:32.152Z,197.49794
2022-11-12T07:18:33.894Z,191.38956
2022-11-12T07:23:36.114Z,158.63415
2022-11-12T07:28:37.903Z,186.51969
2022-11-12T07:33:39.910Z,153.52381
2022-11-12T07:38:41.719Z,177.33333
2022-11-12T07:43:43.568Z,163.21708
2022-11-12T07:48:45.446Z,172.14815
2022-11-12T07:53:47.396Z,154.9589
2022-11-12T07:58:48.866Z,132.3792
2022-11-12T08:03:50.363Z,150.02007
2022-11-12T08:08:52.160Z,175.57895
2022-11-12T08:13:53.937Z,172.14815
2022-11-12T08:18:56.747Z,164
2022-11-12T08:23:58.381Z,140.17834
2022-11-12T08:29:03.932Z,170.47059
2022-11-12T08:34:08.469Z,165.58273
2022-11-12T08:39:10.014Z,171.30627
2022-11-12T08:44:11.830Z,164.78853
2022-11-12T08:49:13.599Z,184.625
2022-11-12T08:54:15.293Z,189.41833
2022-11-12T08:59:17.078Z,181.83784
2022-11-12T09:04:18.686Z,154.9589
2022-11-12T09:09:20.658Z,187.47826
2022-11-12T09:14:22.191Z,199.60166
2022-11-12T09:19:24.313Z,193.39271
2022-11-12T09:24:26.301Z,186.51969
2022-11-12T09:29:28.202Z,186.51969
2022-11-12T09:34:29.993Z,183.68872
2022-11-12T09:39:31.806Z,168
2022-11-12T09:44:36.764Z,161.66784
2022-11-12T09:49:40.733Z,170.47059
2022-11-12T09:54:42.560Z,165.58273
2022-11-12T09:59:44.376Z,196.45902
2022-11-12T10:04:46.237Z,195.42857
2022-11-12T10:09:48.035Z,158.63415
2022-11-12T10:14:49.941Z,155.68385
2022-11-12T10:19:51.895Z,191.38956
2022-11-12T10:24:53.792Z,176.45283
2022-11-12T10:29:55.756Z,181.83784
2022-11-12T10:34:57.959Z,158.63415
2022-11-12T10:39:59.801Z,173.85075
2022-11-12T10:45:01.731Z,195.42857
2022-11-12T10:50:03.668Z,185.56863
2022-11-12T10:55:05.085Z,182.75969
2022-11-12T11:00:06.653Z,166.38267
2022-11-12T11:05:08.175Z,138.93671
2022-11-12T11:10:09.827Z,284.33149
2022-11-12T11:15:11.428Z,346.61438
2022-11-12T11:20:13.366Z,331.42138
2022-11-12T11:25:14.996Z,321.91411
2022-11-12T11:30:16.910Z,326.6087
2022-11-12T11:35:18.390Z,278.78261
2022-11-12T11:40:20.463Z,271.65957
2022-11-12T11:45:22.286Z,300.06936
2022-11-12T11:50:24.145Z,338.87179
2022-11-12T11:55:25.911Z,317.33333
2022-11-12T12:00:27.741Z,317.33333
2022-11-12T12:05:29.427Z,306.35294
2022-11-12T12:10:53.312Z,269.92593
2022-11-12T12:16:03.416Z,250.46766
2022-11-12T12:21:05.325Z,256.69036
2022-11-12T12:26:07.487Z,271.65957
2022-11-12T12:31:09.240Z,258.28571
2022-11-12T12:36:10.724Z,288.13408
2022-11-12T12:41:12.601Z,315.08434
2022-11-12T12:46:14.557Z,336.35669
2022-11-12T12:51:16.614Z,319.60976
2022-11-12T12:56:18.532Z,294
2022-11-12T13:01:20.332Z,317.33333
2022-11-12T13:06:21.870Z,371.77778
2022-11-12T13:11:23.501Z,387.16547
2022-11-12T13:16:25.160Z,371.77778
2022-11-12T13:21:26.806Z,436.8
2022-11-12T13:26:28.331Z,377.80282
2022-11-12T13:31:30.083Z,319.60976
2022-11-12T13:36:31.548Z,331.42138
2022-11-12T13:41:33.228Z,333.87342
2022-11-12T13:46:35.357Z,321.91411
2022-11-12T13:51:39.398Z,294
2022-11-12T13:56:41.632Z,300.06936
2022-11-12T14:01:43.461Z,317.33333
2022-11-12T14:06:45.418Z,329
2022-11-12T14:11:47.362Z,344
2022-11-12T14:16:49.086Z,292.0226
2022-11-12T14:21:50.956Z,310.66667
2022-11-12T14:26:53.163Z,319.60976
2022-11-12T14:31:55.169Z,263.17098
2022-11-12T14:36:58.487Z,286.22222
2022-11-12T14:42:00.867Z,286.22222
2022-11-12T14:47:02.688Z,326.6087
2022-11-12T14:52:04.825Z,288.13408
2022-11-12T14:57:06.463Z,292.0226
2022-11-12T15:02:28.644Z,290.06742
2022-11-12T15:07:34.507Z,310.66667
2022-11-12T15:12:36.285Z,306.35294
2022-11-12T15:17:38.183Z,252
2022-11-12T15:22:40.015Z,224
2022-11-12T15:27:48.017Z,261.52577
2022-11-12T15:33:00.252Z,253.54774
2022-11-12T15:38:12.174Z,244.4878
2022-11-12T15:43:13.893Z,294
2022-11-12T15:48:15.459Z,286.22222
2022-11-12T15:53:17.314Z,271.65957
2022-11-12T15:58:19.101Z,261.52577
2022-11-12T16:03:20.859Z,261.52577
2022-11-12T16:08:22.916Z,202.82353
2022-11-12T16:13:25.006Z,253.54774
2022-11-12T16:18:27.179Z,247.44828
2022-11-12T16:23:29.292Z,220.23318
2022-11-12T16:28:31.236Z,233.20188
2022-11-12T16:33:33.002Z,227.87097
2022-11-12T16:38:34.943Z,216.56637
2022-11-12T16:43:37.186Z,205.01695
2022-11-12T16:48:39.265Z,136.5
2022-11-12T16:53:41.219Z,140.17834
2022-11-12T16:58:43.049Z,187.47826
2022-11-12T17:03:45.445Z,191.38956
2022-11-12T17:08:47.603Z,214.17544
2022-11-12T17:13:49.561Z,252
2022-11-12T17:18:51.497Z,276.97297
2022-11-12T17:23:53.578Z,222.73303
2022-11-12T17:29:02.206Z,266.51309
2022-11-12T17:34:04.420Z,238.73684
2022-11-12T17:39:07.291Z,244.4878
2022-11-12T17:44:10.311Z,193.39271
2022-11-12T17:49:11.894Z,190.4
2022-11-12T17:54:13.640Z,214.17544
2022-11-12T17:59:15.382Z,206.12766
2022-11-12T18:04:17.292Z,212.99563
2022-11-12T18:09:19.651Z,208.37768
2022-11-12T18:14:21.419Z,170.47059
2022-11-12T18:19:23.292Z,154.23891
2022-11-12T18:24:25.410Z,160.14035
2022-11-12T18:29:27.234Z,157.14879
2022-11-12T18:34:28.935Z,164
2022-11-12T18:39:31.532Z,166.38267
2022-11-12T18:44:33.345Z,172.99628
2022-11-12T18:49:35.359Z,178.22053
2022-11-12T18:54:37.581Z,185.56863
2022-11-12T18:59:40.400Z,179.1145
2022-11-12T19:04:45.366Z,172.99628
2022-11-12T19:09:47.939Z,191.38956
2022-11-12T19:14:50.222Z,186.51969
2022-11-12T19:19:52.324Z,184.625
2022-11-12T19:24:54.246Z,190.4
2022-11-12T19:29:59.935Z,197.49794
2022-11-12T19:35:05.031Z,195.42857
2022-11-12T19:40:07.016Z,181.83784
2022-11-12T19:45:08.625Z,202.82353
2022-11-12T19:52:07.379Z,214.17544
2022-11-12T19:57:09.305Z,210.66667
2022-11-12T20:02:11.029Z,219
2022-11-12T20:07:12.664Z,195.42857
2022-11-12T20:12:14.888Z,191.38956
2022-11-12T20:17:16.474Z,175.57895
2022-11-12T20:22:18.081Z,188.44444
2022-11-12T20:27:20.849Z,185.56863
2022-11-12T20:32:22.531Z,181.83784
2022-11-12T20:37:24.235Z,181.83784
2022-11-12T20:42:26.250Z,193.39271
2022-11-12T20:47:33.939Z,193.39271
2022-11-12T20:52:35.974Z,189.41833
2022-11-12T20:57:37.775Z,194.4065
2022-11-12T21:02:39.437Z,200.66667
2022-11-12T21:07:43.171Z,209.51724
2022-11-12T21:12:45.247Z,207.24786
2022-11-12T21:17:47.208Z,180.01533
2022-11-12T21:22:49.126Z,177.33333
2022-11-12T21:27:50.919Z,191.38956
2022-11-12T21:32:52.771Z,203.91561
2022-11-12T21:38:26.314Z,193.39271
2022-11-12T21:43:29.093Z,192.3871
2022-11-12T21:48:32.380Z,193.39271
2022-11-12T21:53:33.923Z,196.45902
2022-11-12T21:58:36.491Z,182.75969
2022-11-12T22:03:38.929Z,157.88889
2022-11-12T22:08:40.415Z,169.64103
2022-11-12T22:13:42.249Z,163.21708
2022-11-12T22:18:44.465Z,178.22053
2022-11-12T22:23:46.388Z,166.38267
2022-11-12T22:28:48.015Z,158.63415
2022-11-12T22:33:49.515Z,162.43972
2022-11-12T22:38:51.215Z,153.52381
2022-11-12T22:43:52.952Z,158.63415
2022-11-12T22:48:54.483Z,152.10811
2022-11-12T22:53:55.986Z,152.10811
2022-11-12T22:58:57.645Z,156.41379
2022-11-12T23:03:59.318Z,147.97351
2022-11-12T23:09:00.745Z,140.80511
2022-11-12T23:14:02.568Z,131.80488
2022-11-12T23:19:04.066Z,133.53846
2022-11-12T23:24:05.751Z,127.33333
2022-11-12T23:29:07.549Z,116.54902
2022-11-12T23:34:09.042Z,116.54902
2022-11-12T23:39:10.488Z,110.03774
2022-11-12T23:44:12.816Z,100.743
2022-11-12T23:49:14.778Z,94.61125
2022-11-12T23:54:16.327Z,92.43373
2022-11-12T23:59:18.580Z,91.01671
